sensor_id;sensor_type;location;lat;lon;timestamp;P1;durP1;ratioP1;P2;durP2;ratioP2
34920;SDS011;21128;50.016;20.002;2023-04-07T00:01:31;58.03;;;38.83;;
34920;SDS011;21128;50.016;20.002;2023-04-07T00:04:01;59.65;;;39.45;;
34920;SDS011;21128;50.016;20.002;2023-04-07T00:06:28;60.12;;;41.05;;
34920;SDS011;21128;50.016;20.002;2023-04-07T00:08:56;62.10;;;42.23;;
34920;SDS011;21128;50.016;20.002;2023-04-07T00:11:23;63.70;;;41.90;;
34920;SDS011;21128;50.016;20.002;2023-04-07T00:13:50;59.23;;;39.35;;
34920;SDS011;21128;50.016;20.002;2023-04-07T00:16:17;63.63;;;43.13;;
34920;SDS011;21128;50.016;20.002;2023-04-07T00:18:44;64.07;;;41.90;;
34920;SDS011;21128;50.016;20.002;2023-04-07T00:21:11;60.77;;;40.20;;
34920;SDS011;21128;50.016;20.002;2023-04-07T00:23:39;60.70;;;39.80;;
34920;SDS011;21128;50.016;20.002;2023-04-07T00:26:09;63.53;;;44.07;;
34920;SDS011;21128;50.016;20.002;2023-04-07T00:28:36;65.67;;;43.47;;
34920;SDS011;21128;50.016;20.002;2023-04-07T00:31:04;62.15;;;40.50;;
34920;SDS011;21128;50.016;20.002;2023-04-07T00:33:31;62.88;;;42.75;;
34920;SDS011;21128;50.016;20.002;2023-04-07T00:35:58;65.97;;;43.47;;
34920;SDS011;21128;50.016;20.002;2023-04-07T00:38:25;65.50;;;44.70;;
34920;SDS011;21128;50.016;20.002;2023-04-07T00:40:56;66.27;;;44.57;;
34920;SDS011;21128;50.016;20.002;2023-04-07T00:43:25;60.57;;;42.13;;
34920;SDS011;21128;50.016;20.002;2023-04-07T00:45:53;66.87;;;43.20;;
34920;SDS011;21128;50.016;20.002;2023-04-07T00:48:20;65.23;;;43.17;;
34920;SDS011;21128;50.016;20.002;2023-04-07T00:50:48;62.73;;;43.90;;
34920;SDS011;21128;50.016;20.002;2023-04-07T00:53:15;64.92;;;42.13;;
34920;SDS011;21128;50.016;20.002;2023-04-07T00:55:42;59.87;;;41.27;;
34920;SDS011;21128;50.016;20.002;2023-04-07T00:58:09;63.93;;;42.40;;
34920;SDS011;21128;50.016;20.002;2023-04-07T01:00:55;66.05;;;43.85;;
34920;SDS011;21128;50.016;20.002;2023-04-07T01:03:35;62.03;;;40.83;;
34920;SDS011;21128;50.016;20.002;2023-04-07T01:06:09;65.07;;;44.37;;
34920;SDS011;21128;50.016;20.002;2023-04-07T01:08:47;66.30;;;43.43;;
34920;SDS011;21128;50.016;20.002;2023-04-07T01:11:22;50.90;;;34.03;;
34920;SDS011;21128;50.016;20.002;2023-04-07T01:13:52;63.23;;;41.40;;
34920;SDS011;21128;50.016;20.002;2023-04-07T01:16:30;66.57;;;43.63;;
34920;SDS011;21128;50.016;20.002;2023-04-07T01:22:20;61.30;;;42.97;;
34920;SDS011;21128;50.016;20.002;2023-04-07T01:27:59;63.25;;;44.00;;
34920;SDS011;21128;50.016;20.002;2023-04-07T01:30:34;64.10;;;41.80;;
34920;SDS011;21128;50.016;20.002;2023-04-07T01:33:06;64.73;;;43.27;;
34920;SDS011;21128;50.016;20.002;2023-04-07T01:35:36;67.30;;;44.20;;
34920;SDS011;21128;50.016;20.002;2023-04-07T01:38:06;66.27;;;45.33;;
34920;SDS011;21128;50.016;20.002;2023-04-07T01:40:36;64.87;;;41.13;;
34920;SDS011;21128;50.016;20.002;2023-04-07T01:43:05;64.90;;;43.17;;
34920;SDS011;21128;50.016;20.002;2023-04-07T01:45:33;63.00;;;39.57;;
34920;SDS011;21128;50.016;20.002;2023-04-07T01:48:04;62.75;;;43.25;;
34920;SDS011;21128;50.016;20.002;2023-04-07T01:50:33;61.63;;;41.27;;
34920;SDS011;21128;50.016;20.002;2023-04-07T01:53:00;61.77;;;42.50;;
34920;SDS011;21128;50.016;20.002;2023-04-07T01:55:30;62.10;;;41.77;;
34920;SDS011;21128;50.016;20.002;2023-04-07T01:57:58;61.97;;;42.80;;
34920;SDS011;21128;50.016;20.002;2023-04-07T02:00:31;59.40;;;40.47;;
34920;SDS011;21128;50.016;20.002;2023-04-07T02:03:04;61.55;;;41.15;;
34920;SDS011;21128;50.016;20.002;2023-04-07T02:05:37;62.93;;;43.33;;
34920;SDS011;21128;50.016;20.002;2023-04-07T02:08:07;57.20;;;38.73;;
34920;SDS011;21128;50.016;20.002;2023-04-07T02:10:36;60.87;;;40.90;;
34920;SDS011;21128;50.016;20.002;2023-04-07T02:13:05;62.53;;;41.00;;
34920;SDS011;21128;50.016;20.002;2023-04-07T02:15:36;64.97;;;41.97;;
34920;SDS011;21128;50.016;20.002;2023-04-07T02:18:05;66.07;;;42.60;;
34920;SDS011;21128;50.016;20.002;2023-04-07T02:20:36;62.67;;;39.33;;
34920;SDS011;21128;50.016;20.002;2023-04-07T02:23:06;62.33;;;40.70;;
34920;SDS011;21128;50.016;20.002;2023-04-07T02:25:34;65.73;;;41.73;;
34920;SDS011;21128;50.016;20.002;2023-04-07T02:28:04;61.73;;;40.77;;
34920;SDS011;21128;50.016;20.002;2023-04-07T02:30:34;59.23;;;42.10;;
34920;SDS011;21128;50.016;20.002;2023-04-07T02:33:04;61.80;;;40.57;;
34920;SDS011;21128;50.016;20.002;2023-04-07T02:35:31;62.70;;;42.20;;
34920;SDS011;21128;50.016;20.002;2023-04-07T02:37:58;64.07;;;41.50;;
34920;SDS011;21128;50.016;20.002;2023-04-07T02:40:25;67.47;;;43.03;;
34920;SDS011;21128;50.016;20.002;2023-04-07T02:42:53;69.20;;;42.37;;
34920;SDS011;21128;50.016;20.002;2023-04-07T02:45:23;66.97;;;42.50;;
34920;SDS011;21128;50.016;20.002;2023-04-07T02:47:50;66.93;;;43.60;;
34920;SDS011;21128;50.016;20.002;2023-04-07T02:50:17;65.47;;;41.07;;
34920;SDS011;21128;50.016;20.002;2023-04-07T02:52:44;63.67;;;43.20;;
34920;SDS011;21128;50.016;20.002;2023-04-07T02:55:12;66.93;;;43.47;;
34920;SDS011;21128;50.016;20.002;2023-04-07T02:57:39;68.60;;;43.60;;
34920;SDS011;21128;50.016;20.002;2023-04-07T03:00:06;66.80;;;45.40;;
34920;SDS011;21128;50.016;20.002;2023-04-07T03:02:37;70.20;;;43.73;;
34920;SDS011;21128;50.016;20.002;2023-04-07T03:05:04;64.33;;;41.73;;
34920;SDS011;21128;50.016;20.002;2023-04-07T03:07:31;63.65;;;43.60;;
34920;SDS011;21128;50.016;20.002;2023-04-07T03:09:59;66.50;;;44.65;;
34920;SDS011;21128;50.016;20.002;2023-04-07T03:12:26;70.20;;;44.13;;
34920;SDS011;21128;50.016;20.002;2023-04-07T03:14:53;66.85;;;43.00;;
34920;SDS011;21128;50.016;20.002;2023-04-07T03:17:20;63.90;;;41.47;;
34920;SDS011;21128;50.016;20.002;2023-04-07T03:19:48;67.07;;;44.23;;
34920;SDS011;21128;50.016;20.002;2023-04-07T03:22:15;64.23;;;43.63;;
34920;SDS011;21128;50.016;20.002;2023-04-07T03:24:42;62.77;;;42.50;;
34920;SDS011;21128;50.016;20.002;2023-04-07T03:27:09;67.93;;;43.07;;
34920;SDS011;21128;50.016;20.002;2023-04-07T03:29:36;68.65;;;44.83;;
34920;SDS011;21128;50.016;20.002;2023-04-07T03:32:04;75.83;;;43.50;;
34920;SDS011;21128;50.016;20.002;2023-04-07T03:34:31;65.30;;;43.13;;
34920;SDS011;21128;50.016;20.002;2023-04-07T03:37:01;70.13;;;43.83;;
34920;SDS011;21128;50.016;20.002;2023-04-07T03:39:28;64.30;;;40.57;;
34920;SDS011;21128;50.016;20.002;2023-04-07T03:41:56;64.17;;;43.53;;
34920;SDS011;21128;50.016;20.002;2023-04-07T03:44:23;64.87;;;41.97;;
34920;SDS011;21128;50.016;20.002;2023-04-07T03:46:51;61.87;;;42.30;;
34920;SDS011;21128;50.016;20.002;2023-04-07T03:49:19;69.25;;;42.10;;
34920;SDS011;21128;50.016;20.002;2023-04-07T03:51:46;65.10;;;41.87;;
34920;SDS011;21128;50.016;20.002;2023-04-07T03:54:14;64.97;;;41.30;;
34920;SDS011;21128;50.016;20.002;2023-04-07T03:56:41;68.50;;;43.60;;
34920;SDS011;21128;50.016;20.002;2023-04-07T03:59:08;66.50;;;43.60;;
34920;SDS011;21128;50.016;20.002;2023-04-07T04:01:36;72.07;;;42.87;;
34920;SDS011;21128;50.016;20.002;2023-04-07T04:04:03;65.97;;;42.57;;
34920;SDS011;21128;50.016;20.002;2023-04-07T04:06:30;61.75;;;41.30;;
34920;SDS011;21128;50.016;20.002;2023-04-07T04:08:58;71.15;;;46.50;;
34920;SDS011;21128;50.016;20.002;2023-04-07T04:11:25;74.30;;;45.10;;
34920;SDS011;21128;50.016;20.002;2023-04-07T04:13:53;72.37;;;46.20;;
34920;SDS011;21128;50.016;20.002;2023-04-07T04:16:20;69.73;;;44.03;;
34920;SDS011;21128;50.016;20.002;2023-04-07T04:18:47;72.70;;;44.83;;
34920;SDS011;21128;50.016;20.002;2023-04-07T04:21:17;71.33;;;42.47;;
34920;SDS011;21128;50.016;20.002;2023-04-07T04:23:47;73.33;;;47.83;;
34920;SDS011;21128;50.016;20.002;2023-04-07T04:26:14;73.50;;;45.40;;
34920;SDS011;21128;50.016;20.002;2023-04-07T04:28:41;71.10;;;45.27;;
34920;SDS011;21128;50.016;20.002;2023-04-07T04:31:09;76.20;;;48.33;;
34920;SDS011;21128;50.016;20.002;2023-04-07T04:33:36;78.37;;;48.13;;
34920;SDS011;21128;50.016;20.002;2023-04-07T04:36:04;67.85;;;45.35;;
34920;SDS011;21128;50.016;20.002;2023-04-07T04:38:32;70.43;;;44.33;;
34920;SDS011;21128;50.016;20.002;2023-04-07T04:40:59;71.13;;;45.73;;
34920;SDS011;21128;50.016;20.002;2023-04-07T04:43:26;64.63;;;42.00;;
34920;SDS011;21128;50.016;20.002;2023-04-07T04:45:53;68.20;;;42.13;;
34920;SDS011;21128;50.016;20.002;2023-04-07T04:48:21;67.90;;;42.87;;
34920;SDS011;21128;50.016;20.002;2023-04-07T04:50:48;67.05;;;40.98;;
34920;SDS011;21128;50.016;20.002;2023-04-07T04:53:19;76.00;;;47.20;;
34920;SDS011;21128;50.016;20.002;2023-04-07T04:55:46;64.58;;;40.43;;
34920;SDS011;21128;50.016;20.002;2023-04-07T04:58:18;74.30;;;44.23;;
34920;SDS011;21128;50.016;20.002;2023-04-07T05:00:47;66.83;;;42.37;;
34920;SDS011;21128;50.016;20.002;2023-04-07T05:03:14;71.87;;;42.83;;
34920;SDS011;21128;50.016;20.002;2023-04-07T05:05:41;67.40;;;41.93;;
34920;SDS011;21128;50.016;20.002;2023-04-07T05:08:09;63.28;;;39.48;;
34920;SDS011;21128;50.016;20.002;2023-04-07T05:10:37;65.93;;;41.43;;
34920;SDS011;21128;50.016;20.002;2023-04-07T05:13:06;63.37;;;40.63;;
34920;SDS011;21128;50.016;20.002;2023-04-07T05:15:33;67.67;;;42.23;;
34920;SDS011;21128;50.016;20.002;2023-04-07T05:18:00;69.00;;;41.10;;
34920;SDS011;21128;50.016;20.002;2023-04-07T05:20:27;68.93;;;41.80;;
34920;SDS011;21128;50.016;20.002;2023-04-07T05:22:55;67.53;;;40.97;;
34920;SDS011;21128;50.016;20.002;2023-04-07T05:25:25;66.30;;;41.50;;
34920;SDS011;21128;50.016;20.002;2023-04-07T05:27:52;65.07;;;38.90;;
34920;SDS011;21128;50.016;20.002;2023-04-07T05:30:19;61.53;;;36.40;;
34920;SDS011;21128;50.016;20.002;2023-04-07T05:32:47;68.33;;;39.23;;
34920;SDS011;21128;50.016;20.002;2023-04-07T05:35:14;61.60;;;39.30;;
34920;SDS011;21128;50.016;20.002;2023-04-07T05:37:41;58.98;;;36.35;;
34920;SDS011;21128;50.016;20.002;2023-04-07T05:40:11;63.93;;;37.87;;
34920;SDS011;21128;50.016;20.002;2023-04-07T05:42:38;63.53;;;38.47;;
34920;SDS011;21128;50.016;20.002;2023-04-07T05:45:06;54.27;;;34.65;;
34920;SDS011;21128;50.016;20.002;2023-04-07T05:47:34;62.03;;;37.70;;
34920;SDS011;21128;50.016;20.002;2023-04-07T05:50:01;68.75;;;39.70;;
34920;SDS011;21128;50.016;20.002;2023-04-07T05:52:28;68.37;;;41.03;;
34920;SDS011;21128;50.016;20.002;2023-04-07T05:54:55;67.47;;;39.67;;
34920;SDS011;21128;50.016;20.002;2023-04-07T05:57:22;71.20;;;42.20;;
34920;SDS011;21128;50.016;20.002;2023-04-07T05:59:49;63.23;;;39.30;;
34920;SDS011;21128;50.016;20.002;2023-04-07T06:02:16;63.85;;;38.45;;
34920;SDS011;21128;50.016;20.002;2023-04-07T06:04:44;65.97;;;40.77;;
34920;SDS011;21128;50.016;20.002;2023-04-07T06:07:12;63.57;;;37.87;;
34920;SDS011;21128;50.016;20.002;2023-04-07T06:09:39;57.98;;;39.63;;
34920;SDS011;21128;50.016;20.002;2023-04-07T06:12:08;62.43;;;36.60;;
34920;SDS011;21128;50.016;20.002;2023-04-07T06:14:36;59.03;;;35.40;;
34920;SDS011;21128;50.016;20.002;2023-04-07T06:17:04;59.00;;;36.33;;
34920;SDS011;21128;50.016;20.002;2023-04-07T06:19:32;63.43;;;39.87;;
34920;SDS011;21128;50.016;20.002;2023-04-07T06:21:59;62.93;;;38.57;;
34920;SDS011;21128;50.016;20.002;2023-04-07T06:24:26;61.70;;;38.27;;
34920;SDS011;21128;50.016;20.002;2023-04-07T06:26:53;64.33;;;39.17;;
34920;SDS011;21128;50.016;20.002;2023-04-07T06:29:22;60.37;;;36.57;;
34920;SDS011;21128;50.016;20.002;2023-04-07T06:31:49;58.60;;;37.25;;
34920;SDS011;21128;50.016;20.002;2023-04-07T06:34:16;59.63;;;38.30;;
34920;SDS011;21128;50.016;20.002;2023-04-07T06:36:43;57.03;;;34.43;;
34920;SDS011;21128;50.016;20.002;2023-04-07T06:39:11;55.10;;;34.97;;
34920;SDS011;21128;50.016;20.002;2023-04-07T06:41:38;55.83;;;33.20;;
34920;SDS011;21128;50.016;20.002;2023-04-07T06:44:09;55.80;;;34.50;;
34920;SDS011;21128;50.016;20.002;2023-04-07T06:46:39;57.30;;;35.33;;
34920;SDS011;21128;50.016;20.002;2023-04-07T06:49:07;52.53;;;33.20;;
34920;SDS011;21128;50.016;20.002;2023-04-07T06:51:35;50.03;;;31.43;;
34920;SDS011;21128;50.016;20.002;2023-04-07T06:54:02;54.42;;;33.10;;
34920;SDS011;21128;50.016;20.002;2023-04-07T06:56:30;54.30;;;33.27;;
34920;SDS011;21128;50.016;20.002;2023-04-07T06:58:58;51.13;;;32.70;;
34920;SDS011;21128;50.016;20.002;2023-04-07T07:01:26;55.47;;;35.13;;
34920;SDS011;21128;50.016;20.002;2023-04-07T07:03:53;54.47;;;33.37;;
34920;SDS011;21128;50.016;20.002;2023-04-07T07:06:20;51.92;;;34.25;;
34920;SDS011;21128;50.016;20.002;2023-04-07T07:08:47;54.83;;;34.30;;
34920;SDS011;21128;50.016;20.002;2023-04-07T07:11:15;57.55;;;35.38;;
34920;SDS011;21128;50.016;20.002;2023-04-07T07:13:42;49.90;;;31.70;;
34920;SDS011;21128;50.016;20.002;2023-04-07T07:16:10;54.53;;;32.73;;
34920;SDS011;21128;50.016;20.002;2023-04-07T07:18:40;58.03;;;34.73;;
34920;SDS011;21128;50.016;20.002;2023-04-07T07:21:08;52.03;;;32.20;;
34920;SDS011;21128;50.016;20.002;2023-04-07T07:23:35;52.17;;;33.08;;
34920;SDS011;21128;50.016;20.002;2023-04-07T07:26:02;54.83;;;34.13;;
34920;SDS011;21128;50.016;20.002;2023-04-07T07:28:29;52.13;;;33.90;;
34920;SDS011;21128;50.016;20.002;2023-04-07T07:30:57;55.17;;;33.37;;
34920;SDS011;21128;50.016;20.002;2023-04-07T07:33:24;52.00;;;31.30;;
34920;SDS011;21128;50.016;20.002;2023-04-07T07:35:52;56.00;;;33.10;;
34920;SDS011;21128;50.016;20.002;2023-04-07T07:38:19;53.07;;;35.07;;
34920;SDS011;21128;50.016;20.002;2023-04-07T07:40:46;58.75;;;33.80;;
34920;SDS011;21128;50.016;20.002;2023-04-07T07:43:13;54.25;;;32.85;;
34920;SDS011;21128;50.016;20.002;2023-04-07T07:45:40;57.30;;;33.83;;
34920;SDS011;21128;50.016;20.002;2023-04-07T07:48:08;52.90;;;33.57;;
34920;SDS011;21128;50.016;20.002;2023-04-07T07:50:36;52.90;;;31.65;;
34920;SDS011;21128;50.016;20.002;2023-04-07T07:53:03;58.03;;;32.20;;
34920;SDS011;21128;50.016;20.002;2023-04-07T07:55:30;49.27;;;30.45;;
34920;SDS011;21128;50.016;20.002;2023-04-07T07:57:57;52.03;;;31.93;;
34920;SDS011;21128;50.016;20.002;2023-04-07T08:00:24;53.00;;;32.20;;
34920;SDS011;21128;50.016;20.002;2023-04-07T08:02:51;52.40;;;32.57;;
34920;SDS011;21128;50.016;20.002;2023-04-07T08:05:18;48.97;;;30.23;;
34920;SDS011;21128;50.016;20.002;2023-04-07T08:07:46;51.20;;;32.20;;
34920;SDS011;21128;50.016;20.002;2023-04-07T08:10:14;54.70;;;32.70;;
34920;SDS011;21128;50.016;20.002;2023-04-07T08:12:41;53.47;;;33.27;;
34920;SDS011;21128;50.016;20.002;2023-04-07T08:15:09;49.05;;;30.75;;
34920;SDS011;21128;50.016;20.002;2023-04-07T08:17:36;47.60;;;28.62;;
34920;SDS011;21128;50.016;20.002;2023-04-07T08:20:04;48.40;;;29.17;;
34920;SDS011;21128;50.016;20.002;2023-04-07T08:22:32;51.93;;;32.20;;
34920;SDS011;21128;50.016;20.002;2023-04-07T08:24:59;48.70;;;28.07;;
34920;SDS011;21128;50.016;20.002;2023-04-07T08:27:27;45.97;;;29.17;;
34920;SDS011;21128;50.016;20.002;2023-04-07T08:29:58;49.60;;;29.37;;
34920;SDS011;21128;50.016;20.002;2023-04-07T08:32:33;41.87;;;27.07;;
34920;SDS011;21128;50.016;20.002;2023-04-07T08:35:02;35.45;;;22.70;;
34920;SDS011;21128;50.016;20.002;2023-04-07T08:37:29;42.37;;;27.33;;
34920;SDS011;21128;50.016;20.002;2023-04-07T08:39:57;44.87;;;29.10;;
34920;SDS011;21128;50.016;20.002;2023-04-07T08:42:26;46.88;;;28.57;;
34920;SDS011;21128;50.016;20.002;2023-04-07T08:44:55;44.80;;;26.97;;
34920;SDS011;21128;50.016;20.002;2023-04-07T08:47:24;40.55;;;26.20;;
34920;SDS011;21128;50.016;20.002;2023-04-07T08:49:53;46.93;;;26.93;;
34920;SDS011;21128;50.016;20.002;2023-04-07T08:54:58;38.57;;;24.47;;
34920;SDS011;21128;50.016;20.002;2023-04-07T08:57:32;41.73;;;26.00;;
34920;SDS011;21128;50.016;20.002;2023-04-07T09:00:00;41.73;;;25.00;;
34920;SDS011;21128;50.016;20.002;2023-04-07T09:02:37;43.23;;;26.60;;
34920;SDS011;21128;50.016;20.002;2023-04-07T09:05:11;40.47;;;25.80;;
34920;SDS011;21128;50.016;20.002;2023-04-07T09:07:40;39.80;;;25.15;;
34920;SDS011;21128;50.016;20.002;2023-04-07T09:10:09;37.27;;;24.47;;
34920;SDS011;21128;50.016;20.002;2023-04-07T09:12:36;36.73;;;24.60;;
34920;SDS011;21128;50.016;20.002;2023-04-07T09:15:05;38.80;;;25.00;;
34920;SDS011;21128;50.016;20.002;2023-04-07T09:17:34;40.50;;;26.17;;
34920;SDS011;21128;50.016;20.002;2023-04-07T09:20:01;41.43;;;25.33;;
34920;SDS011;21128;50.016;20.002;2023-04-07T09:22:47;40.97;;;26.37;;
34920;SDS011;21128;50.016;20.002;2023-04-07T09:27:57;41.43;;;26.40;;
34920;SDS011;21128;50.016;20.002;2023-04-07T09:30:28;40.90;;;24.50;;
34920;SDS011;21128;50.016;20.002;2023-04-07T09:32:56;43.17;;;26.73;;
34920;SDS011;21128;50.016;20.002;2023-04-07T09:35:24;39.47;;;26.30;;
34920;SDS011;21128;50.016;20.002;2023-04-07T09:38:06;42.03;;;26.47;;
34920;SDS011;21128;50.016;20.002;2023-04-07T09:40:35;35.90;;;23.53;;
34920;SDS011;21128;50.016;20.002;2023-04-07T09:43:04;39.27;;;26.00;;
34920;SDS011;21128;50.016;20.002;2023-04-07T09:45:31;39.80;;;26.50;;
34920;SDS011;21128;50.016;20.002;2023-04-07T09:48:03;40.30;;;27.03;;
34920;SDS011;21128;50.016;20.002;2023-04-07T09:53:05;42.20;;;27.40;;
34920;SDS011;21128;50.016;20.002;2023-04-07T09:55:32;42.33;;;26.50;;
34920;SDS011;21128;50.016;20.002;2023-04-07T09:58:02;39.07;;;27.33;;
34920;SDS011;21128;50.016;20.002;2023-04-07T10:00:30;36.63;;;24.63;;
34920;SDS011;21128;50.016;20.002;2023-04-07T10:02:58;39.60;;;24.33;;
34920;SDS011;21128;50.016;20.002;2023-04-07T10:05:26;34.73;;;24.07;;
34920;SDS011;21128;50.016;20.002;2023-04-07T10:07:54;38.30;;;26.60;;
34920;SDS011;21128;50.016;20.002;2023-04-07T10:10:22;38.17;;;26.07;;
34920;SDS011;21128;50.016;20.002;2023-04-07T10:12:51;43.93;;;29.23;;
34920;SDS011;21128;50.016;20.002;2023-04-07T10:15:19;37.97;;;25.50;;
34920;SDS011;21128;50.016;20.002;2023-04-07T10:17:48;41.50;;;26.97;;
34920;SDS011;21128;50.016;20.002;2023-04-07T10:20:17;33.80;;;24.60;;
34920;SDS011;21128;50.016;20.002;2023-04-07T10:22:47;32.57;;;23.03;;
34920;SDS011;21128;50.016;20.002;2023-04-07T10:25:20;38.13;;;25.50;;
34920;SDS011;21128;50.016;20.002;2023-04-07T10:27:50;39.80;;;24.77;;
34920;SDS011;21128;50.016;20.002;2023-04-07T10:30:27;35.20;;;23.45;;
34920;SDS011;21128;50.016;20.002;2023-04-07T10:32:57;33.83;;;22.27;;
34920;SDS011;21128;50.016;20.002;2023-04-07T10:35:24;33.23;;;21.83;;
34920;SDS011;21128;50.016;20.002;2023-04-07T10:40:34;39.00;;;24.98;;
34920;SDS011;21128;50.016;20.002;2023-04-07T10:43:02;34.65;;;24.10;;
34920;SDS011;21128;50.016;20.002;2023-04-07T10:48:13;30.55;;;21.37;;
34920;SDS011;21128;50.016;20.002;2023-04-07T10:50:43;35.03;;;21.87;;
34920;SDS011;21128;50.016;20.002;2023-04-07T10:53:31;29.97;;;20.70;;
34920;SDS011;21128;50.016;20.002;2023-04-07T10:55:58;32.20;;;20.13;;
34920;SDS011;21128;50.016;20.002;2023-04-07T10:58:25;27.53;;;20.03;;
34920;SDS011;21128;50.016;20.002;2023-04-07T11:03:27;27.83;;;19.57;;
34920;SDS011;21128;50.016;20.002;2023-04-07T11:06:02;26.03;;;18.47;;
34920;SDS011;21128;50.016;20.002;2023-04-07T11:08:35;29.77;;;19.07;;
34920;SDS011;21128;50.016;20.002;2023-04-07T11:11:11;27.97;;;19.37;;
34920;SDS011;21128;50.016;20.002;2023-04-07T11:13:44;28.37;;;19.90;;
34920;SDS011;21128;50.016;20.002;2023-04-07T11:16:18;29.03;;;20.60;;
34920;SDS011;21128;50.016;20.002;2023-04-07T11:18:59;27.47;;;19.73;;
34920;SDS011;21128;50.016;20.002;2023-04-07T11:21:27;29.10;;;20.20;;
34920;SDS011;21128;50.016;20.002;2023-04-07T11:23:54;27.23;;;19.17;;
34920;SDS011;21128;50.016;20.002;2023-04-07T11:26:21;25.70;;;19.10;;
34920;SDS011;21128;50.016;20.002;2023-04-07T11:28:50;28.13;;;19.67;;
34920;SDS011;21128;50.016;20.002;2023-04-07T11:31:25;30.70;;;20.90;;
34920;SDS011;21128;50.016;20.002;2023-04-07T11:33:55;31.57;;;20.97;;
34920;SDS011;21128;50.016;20.002;2023-04-07T11:36:27;32.90;;;22.00;;
34920;SDS011;21128;50.016;20.002;2023-04-07T11:38:55;30.87;;;21.87;;
34920;SDS011;21128;50.016;20.002;2023-04-07T11:41:24;25.27;;;19.63;;
34920;SDS011;21128;50.016;20.002;2023-04-07T11:44:02;29.30;;;21.17;;
34920;SDS011;21128;50.016;20.002;2023-04-07T11:46:31;28.03;;;19.50;;
34920;SDS011;21128;50.016;20.002;2023-04-07T11:49:10;33.05;;;22.20;;
34920;SDS011;21128;50.016;20.002;2023-04-07T11:51:42;27.47;;;19.50;;
34920;SDS011;21128;50.016;20.002;2023-04-07T11:54:10;29.00;;;20.43;;
34920;SDS011;21128;50.016;20.002;2023-04-07T11:56:41;28.65;;;19.05;;
34920;SDS011;21128;50.016;20.002;2023-04-07T11:59:20;29.67;;;21.00;;
34920;SDS011;21128;50.016;20.002;2023-04-07T12:01:49;27.30;;;19.90;;
34920;SDS011;21128;50.016;20.002;2023-04-07T12:04:18;32.63;;;22.13;;
34920;SDS011;21128;50.016;20.002;2023-04-07T12:06:46;25.33;;;18.30;;
34920;SDS011;21128;50.016;20.002;2023-04-07T12:09:31;28.27;;;19.83;;
34920;SDS011;21128;50.016;20.002;2023-04-07T12:12:02;27.07;;;19.23;;
34920;SDS011;21128;50.016;20.002;2023-04-07T12:14:34;30.23;;;19.52;;
34920;SDS011;21128;50.016;20.002;2023-04-07T12:17:02;29.20;;;21.53;;
34920;SDS011;21128;50.016;20.002;2023-04-07T12:19:30;29.97;;;21.80;;
34920;SDS011;21128;50.016;20.002;2023-04-07T12:22:01;31.60;;;23.07;;
34920;SDS011;21128;50.016;20.002;2023-04-07T12:24:28;32.80;;;21.97;;
34920;SDS011;21128;50.016;20.002;2023-04-07T12:26:56;26.43;;;19.63;;
34920;SDS011;21128;50.016;20.002;2023-04-07T12:29:23;34.75;;;22.32;;
34920;SDS011;21128;50.016;20.002;2023-04-07T12:31:51;31.67;;;22.40;;
34920;SDS011;21128;50.016;20.002;2023-04-07T12:34:18;34.60;;;22.67;;
34920;SDS011;21128;50.016;20.002;2023-04-07T12:36:45;32.23;;;21.37;;
34920;SDS011;21128;50.016;20.002;2023-04-07T12:39:14;31.30;;;20.73;;
34920;SDS011;21128;50.016;20.002;2023-04-07T12:41:42;31.63;;;21.17;;
34920;SDS011;21128;50.016;20.002;2023-04-07T12:44:11;35.13;;;22.87;;
34920;SDS011;21128;50.016;20.002;2023-04-07T12:46:38;34.53;;;23.47;;
34920;SDS011;21128;50.016;20.002;2023-04-07T12:49:06;34.47;;;22.70;;
34920;SDS011;21128;50.016;20.002;2023-04-07T12:51:33;32.97;;;22.60;;
34920;SDS011;21128;50.016;20.002;2023-04-07T12:54:00;32.25;;;23.40;;
34920;SDS011;21128;50.016;20.002;2023-04-07T12:56:28;35.37;;;24.67;;
34920;SDS011;21128;50.016;20.002;2023-04-07T12:58:55;33.90;;;24.03;;
34920;SDS011;21128;50.016;20.002;2023-04-07T13:01:22;34.97;;;23.13;;
34920;SDS011;21128;50.016;20.002;2023-04-07T13:03:49;35.63;;;24.53;;
34920;SDS011;21128;50.016;20.002;2023-04-07T13:06:16;36.27;;;24.33;;
34920;SDS011;21128;50.016;20.002;2023-04-07T13:08:44;33.53;;;23.30;;
34920;SDS011;21128;50.016;20.002;2023-04-07T13:11:11;38.00;;;25.30;;
34920;SDS011;21128;50.016;20.002;2023-04-07T13:13:38;35.63;;;24.80;;
34920;SDS011;21128;50.016;20.002;2023-04-07T13:16:06;39.10;;;26.73;;
34920;SDS011;21128;50.016;20.002;2023-04-07T13:18:34;36.73;;;25.57;;
34920;SDS011;21128;50.016;20.002;2023-04-07T13:21:02;40.90;;;26.93;;
34920;SDS011;21128;50.016;20.002;2023-04-07T13:23:30;39.97;;;26.83;;
34920;SDS011;21128;50.016;20.002;2023-04-07T13:25:57;40.03;;;27.57;;
34920;SDS011;21128;50.016;20.002;2023-04-07T13:28:24;40.63;;;26.20;;
34920;SDS011;21128;50.016;20.002;2023-04-07T13:30:52;38.60;;;27.87;;
34920;SDS011;21128;50.016;20.002;2023-04-07T13:33:19;39.93;;;28.50;;
34920;SDS011;21128;50.016;20.002;2023-04-07T13:35:46;37.00;;;26.87;;
34920;SDS011;21128;50.016;20.002;2023-04-07T13:38:13;36.60;;;25.27;;
34920;SDS011;21128;50.016;20.002;2023-04-07T13:40:41;37.17;;;25.97;;
34920;SDS011;21128;50.016;20.002;2023-04-07T13:43:10;36.73;;;24.27;;
34920;SDS011;21128;50.016;20.002;2023-04-07T13:45:38;37.93;;;25.83;;
34920;SDS011;21128;50.016;20.002;2023-04-07T13:48:05;41.90;;;27.25;;
34920;SDS011;21128;50.016;20.002;2023-04-07T13:50:35;36.13;;;25.30;;
34920;SDS011;21128;50.016;20.002;2023-04-07T13:53:03;36.97;;;25.67;;
34920;SDS011;21128;50.016;20.002;2023-04-07T13:55:30;40.00;;;26.17;;
34920;SDS011;21128;50.016;20.002;2023-04-07T13:57:57;39.43;;;25.57;;
34920;SDS011;21128;50.016;20.002;2023-04-07T14:00:24;37.97;;;24.87;;
34920;SDS011;21128;50.016;20.002;2023-04-07T14:02:51;34.88;;;23.22;;
34920;SDS011;21128;50.016;20.002;2023-04-07T14:05:18;36.03;;;24.83;;
34920;SDS011;21128;50.016;20.002;2023-04-07T14:07:46;31.47;;;23.00;;
34920;SDS011;21128;50.016;20.002;2023-04-07T14:10:13;33.60;;;25.20;;
34920;SDS011;21128;50.016;20.002;2023-04-07T14:12:40;31.57;;;22.70;;
34920;SDS011;21128;50.016;20.002;2023-04-07T14:15:08;33.90;;;24.50;;
34920;SDS011;21128;50.016;20.002;2023-04-07T14:17:35;34.90;;;24.63;;
34920;SDS011;21128;50.016;20.002;2023-04-07T14:20:03;29.67;;;22.02;;
34920;SDS011;21128;50.016;20.002;2023-04-07T14:22:30;34.23;;;24.07;;
34920;SDS011;21128;50.016;20.002;2023-04-07T14:24:58;35.85;;;26.10;;
34920;SDS011;21128;50.016;20.002;2023-04-07T14:27:25;37.00;;;25.43;;
34920;SDS011;21128;50.016;20.002;2023-04-07T14:29:52;30.47;;;23.03;;
34920;SDS011;21128;50.016;20.002;2023-04-07T14:32:21;34.10;;;24.97;;
34920;SDS011;21128;50.016;20.002;2023-04-07T14:34:49;36.13;;;24.77;;
34920;SDS011;21128;50.016;20.002;2023-04-07T14:37:16;35.43;;;26.23;;
34920;SDS011;21128;50.016;20.002;2023-04-07T14:39:44;34.20;;;24.87;;